sensor_id;sensor_type;location;lat;lon;timestamp;P1;durP1;ratioP1;P2;durP2;ratioP2
25237;SDS011;13185;50.872;5.306;2022-08-21T00:02:25;4.32;;;1.52;;
25237;SDS011;13185;50.872;5.306;2022-08-21T00:04:52;6.53;;;1.70;;
25237;SDS011;13185;50.872;5.306;2022-08-21T00:07:18;4.07;;;2.10;;
25237;SDS011;13185;50.872;5.306;2022-08-21T00:09:44;6.57;;;2.08;;
25237;SDS011;13185;50.872;5.306;2022-08-21T00:12:10;5.88;;;1.50;;
25237;SDS011;13185;50.872;5.306;2022-08-21T00:14:35;5.13;;;1.70;;
25237;SDS011;13185;50.872;5.306;2022-08-21T00:17:02;5.15;;;1.83;;
25237;SDS011;13185;50.872;5.306;2022-08-21T00:19:28;4.63;;;1.90;;
25237;SDS011;13185;50.872;5.306;2022-08-21T00:21:54;3.75;;;1.70;;
25237;SDS011;13185;50.872;5.306;2022-08-21T00:24:21;5.82;;;1.90;;
25237;SDS011;13185;50.872;5.306;2022-08-21T00:26:47;5.32;;;1.83;;
25237;SDS011;13185;50.872;5.306;2022-08-21T00:29:12;3.50;;;1.60;;
25237;SDS011;13185;50.872;5.306;2022-08-21T00:31:39;3.72;;;1.80;;
25237;SDS011;13185;50.872;5.306;2022-08-21T00:34:05;3.90;;;1.65;;
25237;SDS011;13185;50.872;5.306;2022-08-21T00:36:31;5.85;;;1.60;;
25237;SDS011;13185;50.872;5.306;2022-08-21T00:38:57;9.15;;;2.60;;
25237;SDS011;13185;50.872;5.306;2022-08-21T00:41:22;6.03;;;2.00;;
25237;SDS011;13185;50.872;5.306;2022-08-21T00:43:48;4.65;;;1.95;;
25237;SDS011;13185;50.872;5.306;2022-08-21T00:46:14;7.22;;;2.25;;
25237;SDS011;13185;50.872;5.306;2022-08-21T00:48:40;4.30;;;1.98;;
25237;SDS011;13185;50.872;5.306;2022-08-21T00:51:14;3.92;;;1.92;;
25237;SDS011;13185;50.872;5.306;2022-08-21T00:53:47;6.30;;;2.03;;
25237;SDS011;13185;50.872;5.306;2022-08-21T00:56:17;4.57;;;2.17;;
25237;SDS011;13185;50.872;5.306;2022-08-21T00:58:42;4.82;;;2.17;;
25237;SDS011;13185;50.872;5.306;2022-08-21T01:01:08;6.57;;;2.35;;
25237;SDS011;13185;50.872;5.306;2022-08-21T01:03:34;5.07;;;2.28;;
25237;SDS011;13185;50.872;5.306;2022-08-21T01:06:00;6.03;;;1.75;;
25237;SDS011;13185;50.872;5.306;2022-08-21T01:08:28;5.13;;;1.90;;
25237;SDS011;13185;50.872;5.306;2022-08-21T01:10:54;6.93;;;2.15;;
25237;SDS011;13185;50.872;5.306;2022-08-21T01:13:24;6.15;;;2.00;;
25237;SDS011;13185;50.872;5.306;2022-08-21T01:15:50;6.45;;;1.90;;
25237;SDS011;13185;50.872;5.306;2022-08-21T01:18:19;8.00;;;2.17;;
25237;SDS011;13185;50.872;5.306;2022-08-21T01:21:05;7.00;;;2.40;;
25237;SDS011;13185;50.872;5.306;2022-08-21T01:23:36;3.30;;;1.90;;
25237;SDS011;13185;50.872;5.306;2022-08-21T01:26:03;6.05;;;2.10;;
25237;SDS011;13185;50.872;5.306;2022-08-21T01:28:30;4.85;;;2.20;;
25237;SDS011;13185;50.872;5.306;2022-08-21T01:31:02;4.47;;;1.93;;
25237;SDS011;13185;50.872;5.306;2022-08-21T01:33:31;6.05;;;1.92;;
25237;SDS011;13185;50.872;5.306;2022-08-21T01:35:56;4.72;;;2.00;;
25237;SDS011;13185;50.872;5.306;2022-08-21T01:38:22;6.30;;;1.85;;
25237;SDS011;13185;50.872;5.306;2022-08-21T01:40:47;5.07;;;2.00;;
25237;SDS011;13185;50.872;5.306;2022-08-21T01:43:13;3.95;;;1.85;;
25237;SDS011;13185;50.872;5.306;2022-08-21T01:45:39;8.35;;;2.63;;
25237;SDS011;13185;50.872;5.306;2022-08-21T01:48:05;3.13;;;1.75;;
25237;SDS011;13185;50.872;5.306;2022-08-21T01:50:30;4.35;;;1.95;;
25237;SDS011;13185;50.872;5.306;2022-08-21T01:52:56;5.22;;;2.42;;
25237;SDS011;13185;50.872;5.306;2022-08-21T01:55:21;6.30;;;2.20;;
25237;SDS011;13185;50.872;5.306;2022-08-21T01:57:47;6.32;;;2.15;;
25237;SDS011;13185;50.872;5.306;2022-08-21T02:00:14;3.70;;;1.95;;
25237;SDS011;13185;50.872;5.306;2022-08-21T02:02:41;10.85;;;2.15;;
25237;SDS011;13185;50.872;5.306;2022-08-21T02:05:08;6.07;;;1.90;;
25237;SDS011;13185;50.872;5.306;2022-08-21T02:07:47;7.68;;;2.47;;
25237;SDS011;13185;50.872;5.306;2022-08-21T02:10:15;5.30;;;2.17;;
25237;SDS011;13185;50.872;5.306;2022-08-21T02:12:43;7.43;;;1.98;;
25237;SDS011;13185;50.872;5.306;2022-08-21T02:15:08;6.63;;;2.20;;
25237;SDS011;13185;50.872;5.306;2022-08-21T02:17:45;5.20;;;2.05;;
25237;SDS011;13185;50.872;5.306;2022-08-21T02:20:19;4.45;;;1.92;;
25237;SDS011;13185;50.872;5.306;2022-08-21T02:22:50;3.70;;;1.50;;
25237;SDS011;13185;50.872;5.306;2022-08-21T02:25:17;3.55;;;1.80;;
25237;SDS011;13185;50.872;5.306;2022-08-21T02:27:44;7.65;;;2.10;;
25237;SDS011;13185;50.872;5.306;2022-08-21T02:30:16;6.30;;;2.70;;
25237;SDS011;13185;50.872;5.306;2022-08-21T02:32:44;9.00;;;1.67;;
25237;SDS011;13185;50.872;5.306;2022-08-21T02:35:10;3.25;;;1.45;;
25237;SDS011;13185;50.872;5.306;2022-08-21T02:37:43;3.95;;;1.70;;
25237;SDS011;13185;50.872;5.306;2022-08-21T02:40:18;4.88;;;1.95;;
25237;SDS011;13185;50.872;5.306;2022-08-21T02:42:46;15.15;;;2.15;;
25237;SDS011;13185;50.872;5.306;2022-08-21T02:45:12;8.75;;;2.15;;
25237;SDS011;13185;50.872;5.306;2022-08-21T02:47:39;5.43;;;2.30;;
25237;SDS011;13185;50.872;5.306;2022-08-21T02:50:11;6.43;;;1.55;;
25237;SDS011;13185;50.872;5.306;2022-08-21T02:52:36;5.57;;;1.70;;
25237;SDS011;13185;50.872;5.306;2022-08-21T02:55:02;8.25;;;1.65;;
25237;SDS011;13185;50.872;5.306;2022-08-21T02:57:28;6.30;;;2.03;;
25237;SDS011;13185;50.872;5.306;2022-08-21T02:59:53;7.05;;;2.30;;
25237;SDS011;13185;50.872;5.306;2022-08-21T03:02:19;9.45;;;2.28;;
25237;SDS011;13185;50.872;5.306;2022-08-21T03:04:46;7.32;;;2.05;;
25237;SDS011;13185;50.872;5.306;2022-08-21T03:07:11;4.50;;;2.15;;
25237;SDS011;13185;50.872;5.306;2022-08-21T03:09:37;7.60;;;2.05;;
25237;SDS011;13185;50.872;5.306;2022-08-21T03:12:02;4.07;;;2.00;;
25237;SDS011;13185;50.872;5.306;2022-08-21T03:14:28;4.97;;;2.25;;
25237;SDS011;13185;50.872;5.306;2022-08-21T03:16:54;7.40;;;2.00;;
25237;SDS011;13185;50.872;5.306;2022-08-21T03:19:19;7.03;;;2.35;;
25237;SDS011;13185;50.872;5.306;2022-08-21T03:21:45;4.18;;;1.90;;
25237;SDS011;13185;50.872;5.306;2022-08-21T03:24:11;7.15;;;2.10;;
25237;SDS011;13185;50.872;5.306;2022-08-21T03:26:37;4.40;;;1.70;;
25237;SDS011;13185;50.872;5.306;2022-08-21T03:29:02;8.45;;;2.33;;
25237;SDS011;13185;50.872;5.306;2022-08-21T03:31:28;3.80;;;1.73;;
25237;SDS011;13185;50.872;5.306;2022-08-21T03:33:56;4.45;;;1.60;;
25237;SDS011;13185;50.872;5.306;2022-08-21T03:36:22;8.00;;;2.00;;
25237;SDS011;13185;50.872;5.306;2022-08-21T03:38:47;9.10;;;2.15;;
25237;SDS011;13185;50.872;5.306;2022-08-21T03:41:13;5.07;;;2.03;;
25237;SDS011;13185;50.872;5.306;2022-08-21T03:43:38;7.88;;;1.58;;
25237;SDS011;13185;50.872;5.306;2022-08-21T03:46:04;6.38;;;2.20;;
25237;SDS011;13185;50.872;5.306;2022-08-21T03:48:31;7.22;;;2.33;;
25237;SDS011;13185;50.872;5.306;2022-08-21T03:50:57;6.00;;;1.95;;
25237;SDS011;13185;50.872;5.306;2022-08-21T03:53:23;6.15;;;2.13;;
25237;SDS011;13185;50.872;5.306;2022-08-21T03:55:50;6.45;;;1.90;;
25237;SDS011;13185;50.872;5.306;2022-08-21T03:58:19;6.47;;;2.35;;
25237;SDS011;13185;50.872;5.306;2022-08-21T04:00:48;5.18;;;1.77;;
25237;SDS011;13185;50.872;5.306;2022-08-21T04:03:16;4.10;;;1.77;;
25237;SDS011;13185;50.872;5.306;2022-08-21T04:05:42;5.93;;;1.95;;
25237;SDS011;13185;50.872;5.306;2022-08-21T04:08:10;4.88;;;1.85;;
25237;SDS011;13185;50.872;5.306;2022-08-21T04:10:36;6.43;;;2.00;;
25237;SDS011;13185;50.872;5.306;2022-08-21T04:13:03;7.47;;;2.08;;
25237;SDS011;13185;50.872;5.306;2022-08-21T04:15:30;4.63;;;1.88;;
25237;SDS011;13185;50.872;5.306;2022-08-21T04:17:56;7.55;;;2.00;;
25237;SDS011;13185;50.872;5.306;2022-08-21T04:20:21;5.20;;;2.20;;
25237;SDS011;13185;50.872;5.306;2022-08-21T04:22:47;7.13;;;2.10;;
25237;SDS011;13185;50.872;5.306;2022-08-21T04:25:15;7.07;;;2.10;;
25237;SDS011;13185;50.872;5.306;2022-08-21T04:27:42;7.47;;;2.45;;
25237;SDS011;13185;50.872;5.306;2022-08-21T04:30:08;6.68;;;1.92;;
25237;SDS011;13185;50.872;5.306;2022-08-21T04:32:35;5.05;;;2.03;;
25237;SDS011;13185;50.872;5.306;2022-08-21T04:35:06;5.13;;;2.10;;
25237;SDS011;13185;50.872;5.306;2022-08-21T04:37:33;4.90;;;2.42;;
25237;SDS011;13185;50.872;5.306;2022-08-21T04:39:59;5.43;;;1.92;;
25237;SDS011;13185;50.872;5.306;2022-08-21T04:42:25;6.22;;;1.85;;
25237;SDS011;13185;50.872;5.306;2022-08-21T04:44:51;6.25;;;2.55;;
25237;SDS011;13185;50.872;5.306;2022-08-21T04:47:17;3.97;;;2.17;;
25237;SDS011;13185;50.872;5.306;2022-08-21T04:49:43;4.95;;;1.90;;
25237;SDS011;13185;50.872;5.306;2022-08-21T04:52:10;4.25;;;1.77;;
25237;SDS011;13185;50.872;5.306;2022-08-21T04:54:37;7.35;;;1.98;;
25237;SDS011;13185;50.872;5.306;2022-08-21T04:57:04;5.07;;;1.92;;
25237;SDS011;13185;50.872;5.306;2022-08-21T04:59:41;3.70;;;2.13;;
25237;SDS011;13185;50.872;5.306;2022-08-21T05:02:10;4.18;;;1.48;;
25237;SDS011;13185;50.872;5.306;2022-08-21T05:04:39;5.03;;;1.60;;
25237;SDS011;13185;50.872;5.306;2022-08-21T05:09:40;5.32;;;1.70;;
25237;SDS011;13185;50.872;5.306;2022-08-21T05:12:06;3.38;;;1.60;;
25237;SDS011;13185;50.872;5.306;2022-08-21T05:14:32;5.75;;;1.58;;
25237;SDS011;13185;50.872;5.306;2022-08-21T05:16:58;13.02;;;2.47;;
25237;SDS011;13185;50.872;5.306;2022-08-21T05:19:24;8.82;;;2.05;;
25237;SDS011;13185;50.872;5.306;2022-08-21T05:21:50;5.03;;;1.90;;
25237;SDS011;13185;50.872;5.306;2022-08-21T05:24:17;5.65;;;2.10;;
25237;SDS011;13185;50.872;5.306;2022-08-21T05:26:43;7.38;;;2.10;;
25237;SDS011;13185;50.872;5.306;2022-08-21T05:29:09;5.03;;;2.13;;
25237;SDS011;13185;50.872;5.306;2022-08-21T05:31:36;5.18;;;1.70;;
25237;SDS011;13185;50.872;5.306;2022-08-21T05:34:02;8.07;;;2.08;;
25237;SDS011;13185;50.872;5.306;2022-08-21T05:36:28;6.13;;;2.00;;
25237;SDS011;13185;50.872;5.306;2022-08-21T05:38:54;4.65;;;2.42;;
25237;SDS011;13185;50.872;5.306;2022-08-21T05:41:19;7.53;;;1.90;;
25237;SDS011;13185;50.872;5.306;2022-08-21T05:43:45;6.20;;;1.88;;
25237;SDS011;13185;50.872;5.306;2022-08-21T05:46:10;7.43;;;1.85;;
25237;SDS011;13185;50.872;5.306;2022-08-21T05:48:36;12.15;;;1.85;;
25237;SDS011;13185;50.872;5.306;2022-08-21T05:51:05;7.45;;;2.22;;
25237;SDS011;13185;50.872;5.306;2022-08-21T05:53:33;6.97;;;1.90;;
25237;SDS011;13185;50.872;5.306;2022-08-21T05:55:59;4.53;;;1.75;;
25237;SDS011;13185;50.872;5.306;2022-08-21T05:58:24;8.23;;;2.60;;
25237;SDS011;13185;50.872;5.306;2022-08-21T06:00:50;12.77;;;3.00;;
25237;SDS011;13185;50.872;5.306;2022-08-21T06:03:19;8.40;;;2.45;;
25237;SDS011;13185;50.872;5.306;2022-08-21T06:05:49;7.88;;;2.45;;
25237;SDS011;13185;50.872;5.306;2022-08-21T06:08:15;4.78;;;1.98;;
25237;SDS011;13185;50.872;5.306;2022-08-21T06:10:42;7.53;;;2.60;;
25237;SDS011;13185;50.872;5.306;2022-08-21T06:13:09;6.00;;;2.47;;
25237;SDS011;13185;50.872;5.306;2022-08-21T06:15:35;8.88;;;2.22;;
25237;SDS011;13185;50.872;5.306;2022-08-21T06:18:01;5.82;;;2.10;;
25237;SDS011;13185;50.872;5.306;2022-08-21T06:20:26;10.32;;;2.53;;
25237;SDS011;13185;50.872;5.306;2022-08-21T06:22:53;9.30;;;2.17;;
25237;SDS011;13185;50.872;5.306;2022-08-21T06:25:18;8.30;;;2.45;;
25237;SDS011;13185;50.872;5.306;2022-08-21T06:27:44;6.75;;;2.03;;
25237;SDS011;13185;50.872;5.306;2022-08-21T06:30:11;8.32;;;2.47;;
25237;SDS011;13185;50.872;5.306;2022-08-21T06:32:37;7.30;;;2.50;;
25237;SDS011;13185;50.872;5.306;2022-08-21T06:35:03;10.23;;;2.22;;
25237;SDS011;13185;50.872;5.306;2022-08-21T06:37:29;5.57;;;2.22;;
25237;SDS011;13185;50.872;5.306;2022-08-21T06:39:54;7.65;;;2.50;;
25237;SDS011;13185;50.872;5.306;2022-08-21T06:42:20;6.32;;;2.00;;
25237;SDS011;13185;50.872;5.306;2022-08-21T06:44:45;9.65;;;2.42;;
25237;SDS011;13185;50.872;5.306;2022-08-21T06:47:11;6.85;;;2.33;;
25237;SDS011;13185;50.872;5.306;2022-08-21T06:49:36;7.80;;;2.35;;
25237;SDS011;13185;50.872;5.306;2022-08-21T06:52:02;10.80;;;2.38;;
25237;SDS011;13185;50.872;5.306;2022-08-21T06:54:28;8.93;;;1.85;;
25237;SDS011;13185;50.872;5.306;2022-08-21T06:56:53;4.97;;;2.00;;
25237;SDS011;13185;50.872;5.306;2022-08-21T06:59:19;6.88;;;2.28;;
25237;SDS011;13185;50.872;5.306;2022-08-21T07:01:44;7.20;;;2.13;;
25237;SDS011;13185;50.872;5.306;2022-08-21T07:04:10;8.90;;;2.58;;
25237;SDS011;13185;50.872;5.306;2022-08-21T07:06:35;7.43;;;1.65;;
25237;SDS011;13185;50.872;5.306;2022-08-21T07:09:01;8.85;;;2.47;;
25237;SDS011;13185;50.872;5.306;2022-08-21T07:11:27;9.23;;;2.08;;
25237;SDS011;13185;50.872;5.306;2022-08-21T07:13:53;8.70;;;2.35;;
25237;SDS011;13185;50.872;5.306;2022-08-21T07:16:21;7.18;;;1.95;;
25237;SDS011;13185;50.872;5.306;2022-08-21T07:18:47;8.93;;;2.30;;
25237;SDS011;13185;50.872;5.306;2022-08-21T07:21:13;7.70;;;1.98;;
25237;SDS011;13185;50.872;5.306;2022-08-21T07:23:42;9.02;;;1.83;;
25237;SDS011;13185;50.872;5.306;2022-08-21T07:26:10;10.05;;;2.08;;
25237;SDS011;13185;50.872;5.306;2022-08-21T07:28:37;9.23;;;1.90;;
25237;SDS011;13185;50.872;5.306;2022-08-21T07:31:03;6.50;;;1.65;;
25237;SDS011;13185;50.872;5.306;2022-08-21T07:33:31;6.07;;;1.63;;
25237;SDS011;13185;50.872;5.306;2022-08-21T07:35:58;7.20;;;1.60;;
25237;SDS011;13185;50.872;5.306;2022-08-21T07:38:24;4.72;;;1.15;;
25237;SDS011;13185;50.872;5.306;2022-08-21T07:40:50;5.95;;;1.42;;
25237;SDS011;13185;50.872;5.306;2022-08-21T07:43:17;7.43;;;1.33;;
25237;SDS011;13185;50.872;5.306;2022-08-21T07:45:43;5.03;;;1.13;;
25237;SDS011;13185;50.872;5.306;2022-08-21T07:48:09;8.15;;;1.15;;
25237;SDS011;13185;50.872;5.306;2022-08-21T07:50:35;5.95;;;1.73;;
25237;SDS011;13185;50.872;5.306;2022-08-21T07:53:00;5.93;;;1.45;;
25237;SDS011;13185;50.872;5.306;2022-08-21T07:55:26;6.60;;;1.55;;
25237;SDS011;13185;50.872;5.306;2022-08-21T07:57:51;5.97;;;1.60;;
25237;SDS011;13185;50.872;5.306;2022-08-21T08:00:19;3.13;;;1.10;;
25237;SDS011;13185;50.872;5.306;2022-08-21T08:02:47;5.63;;;1.30;;
25237;SDS011;13185;50.872;5.306;2022-08-21T08:05:18;4.45;;;1.40;;
25237;SDS011;13185;50.872;5.306;2022-08-21T08:07:46;5.22;;;1.20;;
25237;SDS011;13185;50.872;5.306;2022-08-21T08:10:12;4.57;;;1.00;;
25237;SDS011;13185;50.872;5.306;2022-08-21T08:12:39;3.42;;;1.00;;
25237;SDS011;13185;50.872;5.306;2022-08-21T08:15:08;2.15;;;0.90;;
25237;SDS011;13185;50.872;5.306;2022-08-21T08:17:37;4.45;;;1.00;;
25237;SDS011;13185;50.872;5.306;2022-08-21T08:20:04;4.35;;;1.15;;
25237;SDS011;13185;50.872;5.306;2022-08-21T08:22:33;5.70;;;1.05;;
25237;SDS011;13185;50.872;5.306;2022-08-21T08:24:59;2.30;;;0.70;;
25237;SDS011;13185;50.872;5.306;2022-08-21T08:27:25;8.27;;;1.00;;
25237;SDS011;13185;50.872;5.306;2022-08-21T08:29:51;6.15;;;1.58;;
25237;SDS011;13185;50.872;5.306;2022-08-21T08:32:16;8.48;;;1.40;;
25237;SDS011;13185;50.872;5.306;2022-08-21T08:34:42;4.93;;;0.82;;
25237;SDS011;13185;50.872;5.306;2022-08-21T08:37:08;2.67;;;0.80;;
25237;SDS011;13185;50.872;5.306;2022-08-21T08:39:34;7.38;;;1.20;;
25237;SDS011;13185;50.872;5.306;2022-08-21T08:42:05;3.78;;;1.08;;
25237;SDS011;13185;50.872;5.306;2022-08-21T08:44:35;4.07;;;1.10;;
25237;SDS011;13185;50.872;5.306;2022-08-21T08:47:02;6.57;;;1.10;;
25237;SDS011;13185;50.872;5.306;2022-08-21T08:49:35;4.78;;;0.88;;
25237;SDS011;13185;50.872;5.306;2022-08-21T08:52:07;5.68;;;1.00;;
25237;SDS011;13185;50.872;5.306;2022-08-21T08:54:43;4.25;;;0.80;;
25237;SDS011;13185;50.872;5.306;2022-08-21T08:57:15;7.60;;;1.25;;
25237;SDS011;13185;50.872;5.306;2022-08-21T08:59:44;4.35;;;1.00;;
25237;SDS011;13185;50.872;5.306;2022-08-21T09:02:15;7.75;;;1.23;;
25237;SDS011;13185;50.872;5.306;2022-08-21T09:04:42;5.55;;;1.10;;
25237;SDS011;13185;50.872;5.306;2022-08-21T09:07:12;5.75;;;0.90;;
25237;SDS011;13185;50.872;5.306;2022-08-21T09:10:00;4.30;;;1.02;;
25237;SDS011;13185;50.872;5.306;2022-08-21T09:13:03;6.93;;;1.17;;
25237;SDS011;13185;50.872;5.306;2022-08-21T09:15:32;4.03;;;0.90;;
25237;SDS011;13185;50.872;5.306;2022-08-21T09:18:15;4.45;;;1.33;;
25237;SDS011;13185;50.872;5.306;2022-08-21T09:20:48;4.43;;;0.88;;
25237;SDS011;13185;50.872;5.306;2022-08-21T09:28:39;7.55;;;2.10;;
25237;SDS011;13185;50.872;5.306;2022-08-21T09:31:11;6.80;;;1.50;;
25237;SDS011;13185;50.872;5.306;2022-08-21T09:33:45;5.40;;;1.15;;
25237;SDS011;13185;50.872;5.306;2022-08-21T09:36:10;4.93;;;1.65;;
25237;SDS011;13185;50.872;5.306;2022-08-21T09:38:36;6.65;;;1.33;;
25237;SDS011;13185;50.872;5.306;2022-08-21T09:41:09;5.82;;;1.15;;
25237;SDS011;13185;50.872;5.306;2022-08-21T09:43:36;5.13;;;1.02;;
25237;SDS011;13185;50.872;5.306;2022-08-21T09:48:43;4.55;;;0.98;;
25237;SDS011;13185;50.872;5.306;2022-08-21T09:51:13;5.32;;;1.05;;
25237;SDS011;13185;50.872;5.306;2022-08-21T09:53:51;5.40;;;0.80;;
25237;SDS011;13185;50.872;5.306;2022-08-21T09:56:24;3.03;;;0.60;;
25237;SDS011;13185;50.872;5.306;2022-08-21T09:59:16;4.72;;;1.15;;
25237;SDS011;13185;50.872;5.306;2022-08-21T10:01:57;4.80;;;1.42;;
25237;SDS011;13185;50.872;5.306;2022-08-21T10:04:33;7.05;;;1.25;;
25237;SDS011;13185;50.872;5.306;2022-08-21T10:07:08;3.90;;;0.82;;
25237;SDS011;13185;50.872;5.306;2022-08-21T10:09:35;8.48;;;1.90;;
25237;SDS011;13185;50.872;5.306;2022-08-21T10:28:05;3.87;;;1.00;;
25237;SDS011;13185;50.872;5.306;2022-08-21T10:36:21;4.72;;;0.73;;
25237;SDS011;13185;50.872;5.306;2022-08-21T10:41:41;5.15;;;1.02;;
25237;SDS011;13185;50.872;5.306;2022-08-21T10:47:05;7.10;;;1.00;;
25237;SDS011;13185;50.872;5.306;2022-08-21T10:52:46;3.75;;;0.80;;
25237;SDS011;13185;50.872;5.306;2022-08-21T10:55:21;4.60;;;1.13;;
25237;SDS011;13185;50.872;5.306;2022-08-21T10:57:59;4.22;;;1.20;;
25237;SDS011;13185;50.872;5.306;2022-08-21T11:03:16;6.93;;;1.52;;
25237;SDS011;13185;50.872;5.306;2022-08-21T11:05:50;9.20;;;1.95;;
25237;SDS011;13185;50.872;5.306;2022-08-21T11:08:21;5.97;;;1.27;;
25237;SDS011;13185;50.872;5.306;2022-08-21T11:11:02;6.25;;;1.25;;
25237;SDS011;13185;50.872;5.306;2022-08-21T11:13:40;6.57;;;1.10;;
25237;SDS011;13185;50.872;5.306;2022-08-21T11:16:15;3.22;;;0.90;;
25237;SDS011;13185;50.872;5.306;2022-08-21T11:24:22;7.63;;;1.10;;
25237;SDS011;13185;50.872;5.306;2022-08-21T11:27:10;12.15;;;4.35;;
25237;SDS011;13185;50.872;5.306;2022-08-21T11:29:53;5.50;;;1.95;;
25237;SDS011;13185;50.872;5.306;2022-08-21T11:32:39;5.72;;;1.27;;
25237;SDS011;13185;50.872;5.306;2022-08-21T11:51:39;5.40;;;1.15;;
25237;SDS011;13185;50.872;5.306;2022-08-21T11:56:59;6.30;;;1.10;;
25237;SDS011;13185;50.872;5.306;2022-08-21T11:59:36;6.72;;;1.17;;
25237;SDS011;13185;50.872;5.306;2022-08-21T12:02:12;9.13;;;1.85;;
25237;SDS011;13185;50.872;5.306;2022-08-21T12:04:48;6.97;;;1.40;;
25237;SDS011;13185;50.872;5.306;2022-08-21T12:07:28;6.63;;;1.08;;
25237;SDS011;13185;50.872;5.306;2022-08-21T12:09:57;4.57;;;0.90;;
25237;SDS011;13185;50.872;5.306;2022-08-21T12:17:50;8.85;;;1.63;;
25237;SDS011;13185;50.872;5.306;2022-08-21T12:20:41;5.78;;;1.10;;
25237;SDS011;13185;50.872;5.306;2022-08-21T12:25:38;5.30;;;1.40;;
25237;SDS011;13185;50.872;5.306;2022-08-21T12:28:08;6.88;;;1.42;;
25237;SDS011;13185;50.872;5.306;2022-08-21T12:30:41;4.47;;;0.90;;
25237;SDS011;13185;50.872;5.306;2022-08-21T12:35:45;4.68;;;1.05;;
25237;SDS011;13185;50.872;5.306;2022-08-21T12:38:27;5.60;;;1.58;;
25237;SDS011;13185;50.872;5.306;2022-08-21T12:40:56;4.95;;;0.90;;
25237;SDS011;13185;50.872;5.306;2022-08-21T12:43:27;7.03;;;1.13;;
25237;SDS011;13185;50.872;5.306;2022-08-21T12:45:58;5.15;;;1.15;;
25237;SDS011;13185;50.872;5.306;2022-08-21T12:48:29;4.63;;;1.00;;
25237;SDS011;13185;50.872;5.306;2022-08-21T12:53:45;5.88;;;1.20;;
25237;SDS011;13185;50.872;5.306;2022-08-21T12:56:14;6.75;;;1.20;;
25237;SDS011;13185;50.872;5.306;2022-08-21T12:58:46;6.88;;;1.40;;
25237;SDS011;13185;50.872;5.306;2022-08-21T13:07:04;6.72;;;1.08;;
25237;SDS011;13185;50.872;5.306;2022-08-21T13:09:32;4.40;;;1.10;;
25237;SDS011;13185;50.872;5.306;2022-08-21T13:11:58;5.88;;;1.85;;
25237;SDS011;13185;50.872;5.306;2022-08-21T13:14:29;4.47;;;1.35;;
25237;SDS011;13185;50.872;5.306;2022-08-21T13:16:58;6.05;;;1.65;;
25237;SDS011;13185;50.872;5.306;2022-08-21T13:19:26;6.25;;;1.10;;
25237;SDS011;13185;50.872;5.306;2022-08-21T13:21:52;5.85;;;1.63;;
25237;SDS011;13185;50.872;5.306;2022-08-21T13:24:19;6.18;;;1.35;;
25237;SDS011;13185;50.872;5.306;2022-08-21T13:26:45;4.97;;;1.10;;
25237;SDS011;13185;50.872;5.306;2022-08-21T13:29:12;7.72;;;1.40;;
25237;SDS011;13185;50.872;5.306;2022-08-21T13:31:42;4.85;;;1.23;;
25237;SDS011;13185;50.872;5.306;2022-08-21T13:34:13;5.82;;;1.55;;
25237;SDS011;13185;50.872;5.306;2022-08-21T13:36:40;6.93;;;1.10;;
25237;SDS011;13185;50.872;5.306;2022-08-21T13:39:08;6.68;;;1.50;;
25237;SDS011;13185;50.872;5.306;2022-08-21T13:41:38;6.28;;;1.10;;
25237;SDS011;13185;50.872;5.306;2022-08-21T13:44:14;4.25;;;1.10;;
25237;SDS011;13185;50.872;5.306;2022-08-21T13:46:43;6.80;;;1.38;;
25237;SDS011;13185;50.872;5.306;2022-08-21T13:49:09;5.22;;;1.20;;
25237;SDS011;13185;50.872;5.306;2022-08-21T13:51:35;7.45;;;1.42;;
25237;SDS011;13185;50.872;5.306;2022-08-21T13:54:02;4.63;;;1.35;;
25237;SDS011;13185;50.872;5.306;2022-08-21T13:56:44;6.18;;;1.25;;
25237;SDS011;13185;50.872;5.306;2022-08-21T13:59:10;5.63;;;1.08;;
25237;SDS011;13185;50.872;5.306;2022-08-21T14:01:37;5.65;;;0.98;;
25237;SDS011;13185;50.872;5.306;2022-08-21T14:04:18;7.13;;;0.98;;
25237;SDS011;13185;50.872;5.306;2022-08-21T14:06:47;6.72;;;1.38;;
25237;SDS011;13185;50.872;5.306;2022-08-21T14:09:28;6.95;;;1.13;;
25237;SDS011;13185;50.872;5.306;2022-08-21T14:11:57;3.67;;;1.17;;
25237;SDS011;13185;50.872;5.306;2022-08-21T14:14:28;5.80;;;1.40;;
25237;SDS011;13185;50.872;5.306;2022-08-21T14:17:02;6.70;;;1.27;;
25237;SDS011;13185;50.872;5.306;2022-08-21T14:19:40;4.75;;;1.25;;
25237;SDS011;13185;50.872;5.306;2022-08-21T14:25:04;8.48;;;1.60;;
25237;SDS011;13185;50.872;5.306;2022-08-21T14:27:31;4.90;;;1.20;;
25237;SDS011;13185;50.872;5.306;2022-08-21T14:30:02;5.50;;;1.20;;
25237;SDS011;13185;50.872;5.306;2022-08-21T14:32:36;6.95;;;1.38;;
25237;SDS011;13185;50.872;5.306;2022-08-21T14:35:04;6.25;;;0.93;;
25237;SDS011;13185;50.872;5.306;2022-08-21T14:37:31;3.67;;;1.08;;
25237;SDS011;13185;50.872;5.306;2022-08-21T14:39:57;5.70;;;1.25;;
25237;SDS011;13185;50.872;5.306;2022-08-21T14:42:23;4.97;;;0.95;;
25237;SDS011;13185;50.872;5.306;2022-08-21T14:44:49;6.07;;;1.35;;
25237;SDS011;13185;50.872;5.306;2022-08-21T14:47:15;3.70;;;0.93;;
25237;SDS011;13185;50.872;5.306;2022-08-21T14:49:41;5.82;;;1.38;;
25237;SDS011;13185;50.872;5.306;2022-08-21T14:52:07;5.32;;;1.20;;
25237;SDS011;13185;50.872;5.306;2022-08-21T14:54:33;6.45;;;1.20;;
25237;SDS011;13185;50.872;5.306;2022-08-21T14:57:00;5.47;;;1.75;;
25237;SDS011;13185;50.872;5.306;2022-08-21T14:59:29;5.72;;;1.10;;
25237;SDS011;13185;50.872;5.306;2022-08-21T15:01:55;7.40;;;1.77;;
25237;SDS011;13185;50.872;5.306;2022-08-21T15:04:21;5.28;;;1.58;;
25237;SDS011;13185;50.872;5.306;2022-08-21T15:06:46;9.40;;;1.50;;
25237;SDS011;13185;50.872;5.306;2022-08-21T15:09:12;5.00;;;1.17;;
25237;SDS011;13185;50.872;5.306;2022-08-21T15:11:37;6.80;;;1.58;;
25237;SDS011;13185;50.872;5.306;2022-08-21T15:14:03;5.65;;;1.13;;
25237;SDS011;13185;50.872;5.306;2022-08-21T15:16:32;6.32;;;1.33;;
25237;SDS011;13185;50.872;5.306;2022-08-21T15:18:58;4.88;;;0.90;;
25237;SDS011;13185;50.872;5.306;2022-08-21T15:21:24;4.43;;;0.85;;
25237;SDS011;13185;50.872;5.306;2022-08-21T15:23:49;7.47;;;1.42;;
25237;SDS011;13185;50.872;5.306;2022-08-21T15:26:15;4.90;;;0.85;;
25237;SDS011;13185;50.872;5.306;2022-08-21T15:28:41;5.88;;;1.30;;
25237;SDS011;13185;50.872;5.306;2022-08-21T15:31:07;3.75;;;0.80;;
25237;SDS011;13185;50.872;5.306;2022-08-21T15:33:33;6.95;;;1.42;;
25237;SDS011;13185;50.872;5.306;2022-08-21T15:35:58;5.88;;;1.40;;
25237;SDS011;13185;50.872;5.306;2022-08-21T15:38:24;7.47;;;1.70;;
25237;SDS011;13185;50.872;5.306;2022-08-21T15:40:50;6.30;;;1.63;;
25237;SDS011;13185;50.872;5.306;2022-08-21T15:43:26;5.35;;;1.13;;
25237;SDS011;13185;50.872;5.306;2022-08-21T15:45:54;5.95;;;1.38;;
25237;SDS011;13185;50.872;5.306;2022-08-21T15:48:20;5.13;;;1.27;;
25237;SDS011;13185;50.872;5.306;2022-08-21T15:50:46;5.35;;;1.10;;
25237;SDS011;13185;50.872;5.306;2022-08-21T15:53:12;5.13;;;1.00;;
25237;SDS011;13185;50.872;5.306;2022-08-21T15:55:38;5.95;;;1.00;;
25237;SDS011;13185;50.872;5.306;2022-08-21T15:58:04;2.53;;;0.80;;
25237;SDS011;13185;50.872;5.306;2022-08-21T16:00:30;9.00;;;1.75;;
25237;SDS011;13185;50.872;5.306;2022-08-21T16:02:59;4.60;;;1.02;;
25237;SDS011;13185;50.872;5.306;2022-08-21T16:05:25;6.07;;;1.33;;
25237;SDS011;13185;50.872;5.306;2022-08-21T16:07:51;6.32;;;1.30;;
25237;SDS011;13185;50.872;5.306;2022-08-21T16:10:18;5.40;;;1.50;;
25237;SDS011;13185;50.872;5.306;2022-08-21T16:12:46;6.07;;;1.17;;
25237;SDS011;13185;50.872;5.306;2022-08-21T16:15:14;6.20;;;1.58;;
25237;SDS011;13185;50.872;5.306;2022-08-21T16:17:42;5.30;;;1.10;;
25237;SDS011;13185;50.872;5.306;2022-08-21T16:20:13;5.63;;;1.20;;
25237;SDS011;13185;50.872;5.306;2022-08-21T16:22:40;4.43;;;1.20;;
25237;SDS011;13185;50.872;5.306;2022-08-21T16:25:06;4.47;;;1.50;;
25237;SDS011;13185;50.872;5.306;2022-08-21T16:27:31;5.65;;;1.17;;